sensor_id;sensor_type;location;lat;lon;timestamp;pressure;altitude;pressure_sealevel;temperature;humidity
15529;BME280;7866;52.280;9.500;2022-08-21T00:01:25;100412.91;;;17.43;76.76
15529;BME280;7866;52.280;9.500;2022-08-21T00:06:28;100418.53;;;17.48;75.72
15529;BME280;7866;52.280;9.500;2022-08-21T00:11:30;100408.94;;;17.39;75.66
15529;BME280;7866;52.280;9.500;2022-08-21T00:16:33;100392.91;;;17.44;75.08
15529;BME280;7866;52.280;9.500;2022-08-21T00:21:35;100395.41;;;17.39;75.57
15529;BME280;7866;52.280;9.500;2022-08-21T00:26:37;100392.50;;;17.34;75.78
15529;BME280;7866;52.280;9.500;2022-08-21T00:31:41;100395.81;;;17.43;75.92
15529;BME280;7866;52.280;9.500;2022-08-21T00:36:43;100404.81;;;17.30;76.21
15529;BME280;7866;52.280;9.500;2022-08-21T00:41:44;100405.25;;;17.20;76.29
15529;BME280;7866;52.280;9.500;2022-08-21T00:46:48;100404.66;;;17.12;76.82
15529;BME280;7866;52.280;9.500;2022-08-21T00:51:51;100409.44;;;17.10;76.99
15529;BME280;7866;52.280;9.500;2022-08-21T00:57:00;100407.97;;;17.14;76.72
15529;BME280;7866;52.280;9.500;2022-08-21T01:02:06;100417.13;;;17.13;76.97
15529;BME280;7866;52.280;9.500;2022-08-21T01:07:10;100416.72;;;17.16;77.15
15529;BME280;7866;52.280;9.500;2022-08-21T01:12:13;100418.78;;;17.07;77.34
15529;BME280;7866;52.280;9.500;2022-08-21T01:17:17;100416.06;;;17.07;76.79
15529;BME280;7866;52.280;9.500;2022-08-21T01:22:21;100419.63;;;16.94;77.78
15529;BME280;7866;52.280;9.500;2022-08-21T01:27:22;100413.81;;;16.97;77.66
15529;BME280;7866;52.280;9.500;2022-08-21T01:32:24;100413.81;;;16.97;77.44
15529;BME280;7866;52.280;9.500;2022-08-21T01:37:27;100419.63;;;16.94;77.41
15529;BME280;7866;52.280;9.500;2022-08-21T01:42:29;100417.97;;;17.07;77.32
15529;BME280;7866;52.280;9.500;2022-08-21T01:47:31;100406.75;;;16.96;77.51
15529;BME280;7866;52.280;9.500;2022-08-21T01:52:34;100403.22;;;16.89;77.45
15529;BME280;7866;52.280;9.500;2022-08-21T01:57:36;100389.25;;;16.86;77.89
15529;BME280;7866;52.280;9.500;2022-08-21T02:02:38;100388.66;;;16.84;77.91
15529;BME280;7866;52.280;9.500;2022-08-21T02:07:44;100388.84;;;16.89;77.74
15529;BME280;7866;52.280;9.500;2022-08-21T02:12:46;100386.97;;;16.89;78.30
15529;BME280;7866;52.280;9.500;2022-08-21T02:17:51;100383.66;;;16.81;78.74
15529;BME280;7866;52.280;9.500;2022-08-21T02:22:55;100380.72;;;16.75;78.56
15529;BME280;7866;52.280;9.500;2022-08-21T02:27:57;100382.59;;;16.68;78.96
15529;BME280;7866;52.280;9.500;2022-08-21T02:32:59;100367.19;;;16.56;79.16
15529;BME280;7866;52.280;9.500;2022-08-21T02:38:10;100372.59;;;16.49;79.06
15529;BME280;7866;52.280;9.500;2022-08-21T02:43:13;100370.94;;;16.48;79.55
15529;BME280;7866;52.280;9.500;2022-08-21T02:48:18;100368.84;;;16.50;79.37
15529;BME280;7866;52.280;9.500;2022-08-21T02:53:22;100363.88;;;16.60;79.71
15529;BME280;7866;52.280;9.500;2022-08-21T02:58:26;100356.78;;;16.66;79.26
15529;BME280;7866;52.280;9.500;2022-08-21T03:03:29;100354.50;;;16.63;79.64
15529;BME280;7866;52.280;9.500;2022-08-21T03:08:32;100358.03;;;16.57;80.02
15529;BME280;7866;52.280;9.500;2022-08-21T03:13:33;100351.59;;;16.58;79.99
15529;BME280;7866;52.280;9.500;2022-08-21T03:18:35;100349.72;;;16.58;79.97
15529;BME280;7866;52.280;9.500;2022-08-21T03:23:38;100359.25;;;16.67;79.38
15529;BME280;7866;52.280;9.500;2022-08-21T03:28:42;100346.19;;;16.84;79.21
15529;BME280;7866;52.280;9.500;2022-08-21T03:33:43;100338.28;;;16.96;78.58
15529;BME280;7866;52.280;9.500;2022-08-21T03:38:47;100344.28;;;17.05;78.52
15529;BME280;7866;52.280;9.500;2022-08-21T03:43:48;100348.88;;;17.04;78.07
15529;BME280;7866;52.280;9.500;2022-08-21T03:48:50;100344.28;;;16.98;78.35
15529;BME280;7866;52.280;9.500;2022-08-21T03:53:54;100348.06;;;16.97;78.77
15529;BME280;7866;52.280;9.500;2022-08-21T03:58:56;100348.00;;;17.10;78.73
15529;BME280;7866;52.280;9.500;2022-08-21T04:03:57;100354.69;;;17.08;78.67
15529;BME280;7866;52.280;9.500;2022-08-21T04:09:00;100349.91;;;17.10;78.93
15529;BME280;7866;52.280;9.500;2022-08-21T04:14:02;100355.09;;;17.11;78.69
15529;BME280;7866;52.280;9.500;2022-08-21T04:19:04;100354.59;;;17.34;77.60
15529;BME280;7866;52.280;9.500;2022-08-21T04:24:08;100356.34;;;17.67;74.82
15529;BME280;7866;52.280;9.500;2022-08-21T04:29:10;100359.59;;;17.95;73.10
15529;BME280;7866;52.280;9.500;2022-08-21T04:34:12;100364.31;;;18.07;72.30
15529;BME280;7866;52.280;9.500;2022-08-21T04:39:15;100361.94;;;18.24;71.78
15529;BME280;7866;52.280;9.500;2022-08-21T04:44:17;100363.88;;;18.41;70.88
15529;BME280;7866;52.280;9.500;2022-08-21T04:49:19;100374.47;;;18.50;70.77
15529;BME280;7866;52.280;9.500;2022-08-21T04:54:22;100371.81;;;18.68;70.02
15529;BME280;7866;52.280;9.500;2022-08-21T04:59:31;100379.72;;;18.76;70.06
15529;BME280;7866;52.280;9.500;2022-08-21T05:04:36;100379.19;;;18.86;69.69
15529;BME280;7866;52.280;9.500;2022-08-21T05:09:41;100382.31;;;18.89;69.77
15529;BME280;7866;52.280;9.500;2022-08-21T05:14:42;100377.09;;;18.88;69.84
15529;BME280;7866;52.280;9.500;2022-08-21T05:19:44;100378.25;;;18.74;70.82
15529;BME280;7866;52.280;9.500;2022-08-21T05:24:47;100372.16;;;18.78;70.90
15529;BME280;7866;52.280;9.500;2022-08-21T05:29:49;100378.41;;;18.79;71.00
15529;BME280;7866;52.280;9.500;2022-08-21T05:34:51;100385.06;;;18.83;71.23
15529;BME280;7866;52.280;9.500;2022-08-21T05:39:54;100398.28;;;18.98;70.95
15529;BME280;7866;52.280;9.500;2022-08-21T05:44:56;100403.59;;;19.11;70.40
15529;BME280;7866;52.280;9.500;2022-08-21T05:49:57;100397.66;;;19.20;69.92
15529;BME280;7866;52.280;9.500;2022-08-21T05:55:00;100395.00;;;19.14;70.38
15529;BME280;7866;52.280;9.500;2022-08-21T06:00:03;100405.72;;;19.09;71.12
15529;BME280;7866;52.280;9.500;2022-08-21T06:05:06;100407.75;;;19.13;70.93
15529;BME280;7866;52.280;9.500;2022-08-21T06:10:10;100409.69;;;19.06;71.25
15529;BME280;7866;52.280;9.500;2022-08-21T06:15:11;100420.97;;;19.28;70.69
15529;BME280;7866;52.280;9.500;2022-08-21T06:20:13;100417.38;;;19.89;69.24
15529;BME280;7866;52.280;9.500;2022-08-21T06:25:17;100412.81;;;19.72;69.55
15529;BME280;7866;52.280;9.500;2022-08-21T06:30:19;100418.66;;;19.50;70.45
15529;BME280;7866;52.280;9.500;2022-08-21T06:35:21;100407.19;;;19.85;69.91
15529;BME280;7866;52.280;9.500;2022-08-21T06:40:27;100418.63;;;20.24;68.40
15529;BME280;7866;52.280;9.500;2022-08-21T06:45:29;100414.06;;;20.89;66.34
15529;BME280;7866;52.280;9.500;2022-08-21T06:50:30;100415.63;;;21.32;64.39
15529;BME280;7866;52.280;9.500;2022-08-21T06:55:34;100404.38;;;21.93;63.43
15529;BME280;7866;52.280;9.500;2022-08-21T07:00:39;100405.59;;;21.73;62.28
15529;BME280;7866;52.280;9.500;2022-08-21T07:05:41;100404.06;;;21.77;63.00
15529;BME280;7866;52.280;9.500;2022-08-21T07:10:44;100401.34;;;21.77;63.09
15529;BME280;7866;52.280;9.500;2022-08-21T07:15:47;100389.72;;;22.10;60.73
15529;BME280;7866;52.280;9.500;2022-08-21T07:20:48;100389.72;;;22.10;61.29
15529;BME280;7866;52.280;9.500;2022-08-21T07:25:52;100394.25;;;22.33;60.19
15529;BME280;7866;52.280;9.500;2022-08-21T07:30:55;100396.78;;;22.52;60.04
15529;BME280;7866;52.280;9.500;2022-08-21T07:35:58;100394.03;;;22.35;59.84
15529;BME280;7866;52.280;9.500;2022-08-21T07:41:02;100394.72;;;22.59;59.25
15529;BME280;7866;52.280;9.500;2022-08-21T07:46:04;100388.41;;;22.42;58.19
15529;BME280;7866;52.280;9.500;2022-08-21T07:51:08;100381.47;;;22.68;58.51
15529;BME280;7866;52.280;9.500;2022-08-21T07:56:11;100392.06;;;22.98;58.63
15529;BME280;7866;52.280;9.500;2022-08-21T08:01:13;100381.53;;;22.90;58.93
15529;BME280;7866;52.280;9.500;2022-08-21T08:06:16;100375.38;;;22.94;57.23
15529;BME280;7866;52.280;9.500;2022-08-21T08:11:20;100380.41;;;23.41;56.41
15529;BME280;7866;52.280;9.500;2022-08-21T08:16:22;100375.31;;;23.67;56.73
15529;BME280;7866;52.280;9.500;2022-08-21T08:21:24;100378.47;;;23.80;55.44
15529;BME280;7866;52.280;9.500;2022-08-21T08:26:28;100377.66;;;23.41;56.17
15529;BME280;7866;52.280;9.500;2022-08-21T08:31:29;100376.25;;;23.17;55.77
15529;BME280;7866;52.280;9.500;2022-08-21T08:36:34;100372.03;;;23.48;55.16
15529;BME280;7866;52.280;9.500;2022-08-21T08:41:37;100377.56;;;23.31;54.68
15529;BME280;7866;52.280;9.500;2022-08-21T08:46:41;100369.25;;;23.26;53.60
15529;BME280;7866;52.280;9.500;2022-08-21T08:51:48;100369.03;;;23.27;52.95
15529;BME280;7866;52.280;9.500;2022-08-21T08:56:54;100363.84;;;23.70;52.36
15529;BME280;7866;52.280;9.500;2022-08-21T09:01:56;100365.75;;;23.47;52.09
15529;BME280;7866;52.280;9.500;2022-08-21T09:07:07;100369.31;;;23.70;50.35
15529;BME280;7866;52.280;9.500;2022-08-21T09:12:20;100351.91;;;24.03;50.19
15529;BME280;7866;52.280;9.500;2022-08-21T09:17:39;100352.63;;;24.20;48.17
15529;BME280;7866;52.280;9.500;2022-08-21T09:22:49;100358.63;;;24.44;50.71
15529;BME280;7866;52.280;9.500;2022-08-21T09:27:56;100350.81;;;24.31;48.87
15529;BME280;7866;52.280;9.500;2022-08-21T09:32:58;100351.66;;;24.31;50.19
15529;BME280;7866;52.280;9.500;2022-08-21T09:38:01;100359.69;;;24.38;50.37
15529;BME280;7866;52.280;9.500;2022-08-21T09:43:16;100360.69;;;24.59;48.85
15529;BME280;7866;52.280;9.500;2022-08-21T09:48:20;100360.34;;;24.88;48.70
15529;BME280;7866;52.280;9.500;2022-08-21T09:53:24;100356.34;;;24.68;48.07
15529;BME280;7866;52.280;9.500;2022-08-21T09:58:33;100354.03;;;24.50;48.39
15529;BME280;7866;52.280;9.500;2022-08-21T10:03:35;100344.91;;;24.76;47.76
15529;BME280;7866;52.280;9.500;2022-08-21T10:08:39;100344.09;;;24.76;46.26
15529;BME280;7866;52.280;9.500;2022-08-21T10:13:50;100340.34;;;24.87;45.60
15529;BME280;7866;52.280;9.500;2022-08-21T10:19:03;100344.56;;;25.05;43.60
15529;BME280;7866;52.280;9.500;2022-08-21T10:24:11;100337.56;;;24.82;47.58
15529;BME280;7866;52.280;9.500;2022-08-21T10:29:30;100322.81;;;25.36;45.37
15529;BME280;7866;52.280;9.500;2022-08-21T10:34:43;100328.31;;;25.41;45.86
15529;BME280;7866;52.280;9.500;2022-08-21T10:39:58;100314.53;;;25.25;43.65
15529;BME280;7866;52.280;9.500;2022-08-21T10:45:18;100319.63;;;25.69;44.94
15529;BME280;7866;52.280;9.500;2022-08-21T10:50:30;100312.63;;;25.94;45.27
15529;BME280;7866;52.280;9.500;2022-08-21T10:55:39;100306.56;;;25.82;43.89
15529;BME280;7866;52.280;9.500;2022-08-21T11:00:47;100301.66;;;26.19;43.11
15529;BME280;7866;52.280;9.500;2022-08-21T11:05:52;100304.34;;;25.78;43.83
15529;BME280;7866;52.280;9.500;2022-08-21T11:10:58;100310.97;;;26.08;44.32
15529;BME280;7866;52.280;9.500;2022-08-21T11:16:07;100318.66;;;26.01;44.36
15529;BME280;7866;52.280;9.500;2022-08-21T11:21:25;100310.16;;;26.28;42.80
15529;BME280;7866;52.280;9.500;2022-08-21T11:26:37;100307.66;;;25.86;43.24
15529;BME280;7866;52.280;9.500;2022-08-21T11:31:51;100302.72;;;25.93;40.36
15529;BME280;7866;52.280;9.500;2022-08-21T11:37:02;100311.97;;;25.66;44.94
15529;BME280;7866;52.280;9.500;2022-08-21T11:42:18;100305.34;;;25.52;43.96
15529;BME280;7866;52.280;9.500;2022-08-21T11:47:27;100307.41;;;26.33;42.33
15529;BME280;7866;52.280;9.500;2022-08-21T11:52:34;100304.34;;;25.84;41.84
15529;BME280;7866;52.280;9.500;2022-08-21T11:57:40;100309.06;;;26.24;42.68
15529;BME280;7866;52.280;9.500;2022-08-21T12:02:51;100308.28;;;26.54;41.59
15529;BME280;7866;52.280;9.500;2022-08-21T12:08:02;100295.66;;;26.58;42.20
15529;BME280;7866;52.280;9.500;2022-08-21T12:13:10;100293.72;;;26.23;43.14
15529;BME280;7866;52.280;9.500;2022-08-21T12:18:29;100302.16;;;26.93;40.71
15529;BME280;7866;52.280;9.500;2022-08-21T12:23:33;100296.34;;;27.20;41.01
15529;BME280;7866;52.280;9.500;2022-08-21T12:28:44;100296.50;;;27.49;40.14
15529;BME280;7866;52.280;9.500;2022-08-21T12:33:54;100298.28;;;27.04;41.81
15529;BME280;7866;52.280;9.500;2022-08-21T12:38:57;100290.94;;;26.69;42.03
15529;BME280;7866;52.280;9.500;2022-08-21T12:44:04;100282.91;;;27.13;40.12
15529;BME280;7866;52.280;9.500;2022-08-21T12:49:15;100291.13;;;27.08;38.50
15529;BME280;7866;52.280;9.500;2022-08-21T12:54:25;100279.84;;;27.20;39.17
15529;BME280;7866;52.280;9.500;2022-08-21T12:59:28;100283.16;;;27.77;39.70
15529;BME280;7866;52.280;9.500;2022-08-21T13:04:36;100274.59;;;27.83;38.50
15529;BME280;7866;52.280;9.500;2022-08-21T13:09:44;100266.59;;;27.32;38.53
15529;BME280;7866;52.280;9.500;2022-08-21T13:14:50;100269.03;;;27.39;39.40
15529;BME280;7866;52.280;9.500;2022-08-21T13:19:56;100272.47;;;27.05;39.51
15529;BME280;7866;52.280;9.500;2022-08-21T13:24:58;100274.75;;;26.67;40.39
15529;BME280;7866;52.280;9.500;2022-08-21T13:30:05;100275.44;;;27.09;41.54
15529;BME280;7866;52.280;9.500;2022-08-21T13:35:12;100281.09;;;27.53;40.27
15529;BME280;7866;52.280;9.500;2022-08-21T13:40:17;100274.84;;;27.87;38.86
15529;BME280;7866;52.280;9.500;2022-08-21T13:45:25;100282.63;;;27.69;38.16
15529;BME280;7866;52.280;9.500;2022-08-21T13:50:28;100268.22;;;27.88;37.60
15529;BME280;7866;52.280;9.500;2022-08-21T13:55:39;100269.44;;;28.11;37.15
15529;BME280;7866;52.280;9.500;2022-08-21T14:00:46;100268.69;;;26.70;39.79
15529;BME280;7866;52.280;9.500;2022-08-21T14:05:50;100271.75;;;27.44;40.16
15529;BME280;7866;52.280;9.500;2022-08-21T14:10:52;100267.84;;;27.55;39.99
15529;BME280;7866;52.280;9.500;2022-08-21T14:15:57;100261.50;;;27.60;39.96
15529;BME280;7866;52.280;9.500;2022-08-21T14:21:08;100251.69;;;27.93;39.44
15529;BME280;7866;52.280;9.500;2022-08-21T14:26:10;100266.59;;;28.21;39.52
15529;BME280;7866;52.280;9.500;2022-08-21T14:31:15;100263.19;;;28.34;39.36
15529;BME280;7866;52.280;9.500;2022-08-21T14:36:19;100263.91;;;27.22;40.33
15529;BME280;7866;52.280;9.500;2022-08-21T14:41:23;100252.88;;;27.82;39.91
15529;BME280;7866;52.280;9.500;2022-08-21T14:46:30;100261.28;;;27.51;39.79
15529;BME280;7866;52.280;9.500;2022-08-21T14:51:34;100254.03;;;28.10;39.30
15529;BME280;7866;52.280;9.500;2022-08-21T14:56:36;100260.03;;;28.17;38.35
15529;BME280;7866;52.280;9.500;2022-08-21T15:01:38;100253.06;;;27.90;38.99
15529;BME280;7866;52.280;9.500;2022-08-21T15:06:42;100252.22;;;26.60;40.92
15529;BME280;7866;52.280;9.500;2022-08-21T15:11:43;100255.06;;;27.30;39.51
15529;BME280;7866;52.280;9.500;2022-08-21T15:16:45;100254.66;;;27.52;39.12
15529;BME280;7866;52.280;9.500;2022-08-21T15:21:49;100245.22;;;27.19;39.35
15529;BME280;7866;52.280;9.500;2022-08-21T15:26:51;100249.75;;;27.44;38.80
15529;BME280;7866;52.280;9.500;2022-08-21T15:31:55;100252.50;;;27.49;39.19
15529;BME280;7866;52.280;9.500;2022-08-21T15:36:58;100244.81;;;27.41;38.73
15529;BME280;7866;52.280;9.500;2022-08-21T15:42:00;100248.84;;;26.94;39.42
15529;BME280;7866;52.280;9.500;2022-08-21T15:47:02;100245.63;;;26.56;39.90
15529;BME280;7866;52.280;9.500;2022-08-21T15:52:05;100246.44;;;26.67;39.37
15529;BME280;7866;52.280;9.500;2022-08-21T15:57:08;100244.25;;;26.43;40.13
15529;BME280;7866;52.280;9.500;2022-08-21T16:02:14;100247.03;;;26.38;40.31
15529;BME280;7866;52.280;9.500;2022-08-21T16:07:18;100248.41;;;26.51;39.81
15529;BME280;7866;52.280;9.500;2022-08-21T16:12:22;100251.69;;;26.38;40.81
15529;BME280;7866;52.280;9.500;2022-08-21T16:17:28;100248.13;;;26.32;39.96
15529;BME280;7866;52.280;9.500;2022-08-21T16:22:32;100241.53;;;26.23;40.55
15529;BME280;7866;52.280;9.500;2022-08-21T16:27:34;100239.06;;;26.11;41.21
15529;BME280;7866;52.280;9.500;2022-08-21T16:32:37;100237.69;;;25.98;41.11
15529;BME280;7866;52.280;9.500;2022-08-21T16:37:40;100236.31;;;25.91;41.73
15529;BME280;7866;52.280;9.500;2022-08-21T16:42:42;100236.31;;;25.86;40.77
15529;BME280;7866;52.280;9.500;2022-08-21T16:47:45;100229.69;;;25.76;42.48
15529;BME280;7866;52.280;9.500;2022-08-21T16:52:48;100239.25;;;25.59;41.83
15529;BME280;7866;52.280;9.500;2022-08-21T16:57:50;100226.59;;;25.37;43.41
15529;BME280;7866;52.280;9.500;2022-08-21T17:02:55;100229.88;;;24.76;46.56
15529;BME280;7866;52.280;9.500;2022-08-21T17:07:58;100233.63;;;24.60;46.67
15529;BME280;7866;52.280;9.500;2022-08-21T17:13:00;100236.59;;;24.21;48.16
15529;BME280;7866;52.280;9.500;2022-08-21T17:18:04;100234.78;;;24.00;49.77
15529;BME280;7866;52.280;9.500;2022-08-21T17:23:09;100240.97;;;23.63;50.32
15529;BME280;7866;52.280;9.500;2022-08-21T17:28:14;100237.50;;;23.46;51.38
15529;BME280;7866;52.280;9.500;2022-08-21T17:33:17;100245.88;;;23.34;52.46
15529;BME280;7866;52.280;9.500;2022-08-21T17:38:21;100236.25;;;23.31;52.61
15529;BME280;7866;52.280;9.500;2022-08-21T17:43:23;100245.88;;;23.12;52.23
15529;BME280;7866;52.280;9.500;2022-08-21T17:48:25;100238.13;;;23.04;51.89
15529;BME280;7866;52.280;9.500;2022-08-21T17:53:28;100247.50;;;22.91;52.94
15529;BME280;7866;52.280;9.500;2022-08-21T17:58:30;100249.84;;;22.82;52.60
15529;BME280;7866;52.280;9.500;2022-08-21T18:03:32;100256.16;;;22.66;52.98
15529;BME280;7866;52.280;9.500;2022-08-21T18:08:36;100263.44;;;22.60;52.81
15529;BME280;7866;52.280;9.500;2022-08-21T18:13:39;100269.16;;;22.59;52.83
15529;BME280;7866;52.280;9.500;2022-08-21T18:18:42;100271.06;;;22.58;53.00
15529;BME280;7866;52.280;9.500;2022-08-21T18:23:45;100273.53;;;22.43;53.04
15529;BME280;7866;52.280;9.500;2022-08-21T18:28:47;100283.03;;;22.41;53.26
15529;BME280;7866;52.280;9.500;2022-08-21T18:33:49;100280.13;;;22.13;54.75
15529;BME280;7866;52.280;9.500;2022-08-21T18:38:52;100282.91;;;22.02;55.83
15529;BME280;7866;52.280;9.500;2022-08-21T18:43:54;100285.38;;;21.86;54.99
15529;BME280;7866;52.280;9.500;2022-08-21T18:48:56;100296.09;;;21.76;55.65
15529;BME280;7866;52.280;9.500;2022-08-21T18:53:59;100299.47;;;21.67;56.35
15529;BME280;7866;52.280;9.500;2022-08-21T18:59:01;100298.34;;;21.51;56.60
15529;BME280;7866;52.280;9.500;2022-08-21T19:04:04;100302.66;;;21.35;56.28
15529;BME280;7866;52.280;9.500;2022-08-21T19:09:08;100314.09;;;21.25;56.74
15529;BME280;7866;52.280;9.500;2022-08-21T19:14:12;100308.09;;;21.23;57.52
15529;BME280;7866;52.280;9.500;2022-08-21T19:19:16;100317.31;;;21.22;58.36
15529;BME280;7866;52.280;9.500;2022-08-21T19:24:20;100312.59;;;21.06;58.23
15529;BME280;7866;52.280;9.500;2022-08-21T19:29:22;100321.03;;;20.92;58.25
15529;BME280;7866;52.280;9.500;2022-08-21T19:34:26;100316.28;;;20.76;59.11
15529;BME280;7866;52.280;9.500;2022-08-21T19:39:30;100315.22;;;20.77;58.61
15529;BME280;7866;52.280;9.500;2022-08-21T19:44:35;100319.72;;;20.72;59.32
15529;BME280;7866;52.280;9.500;2022-08-21T19:49:38;100315.94;;;20.61;59.41
15529;BME280;7866;52.280;9.500;2022-08-21T19:54:43;100319.47;;;20.50;59.70
15529;BME280;7866;52.280;9.500;2022-08-21T19:59:45;100323.47;;;20.47;60.19
15529;BME280;7866;52.280;9.500;2022-08-21T20:04:47;100317.81;;;20.49;59.55
15529;BME280;7866;52.280;9.500;2022-08-21T20:09:50;100322.13;;;20.38;59.97
15529;BME280;7866;52.280;9.500;2022-08-21T20:14:52;100316.47;;;20.28;60.87
15529;BME280;7866;52.280;9.500;2022-08-21T20:19:54;100323.09;;;20.32;60.46
15529;BME280;7866;52.280;9.500;2022-08-21T20:24:57;100330.75;;;20.23;61.30
15529;BME280;7866;52.280;9.500;2022-08-21T20:29:59;100332.72;;;20.04;61.99
15529;BME280;7866;52.280;9.500;2022-08-21T20:35:01;100325.25;;;20.00;62.23
15529;BME280;7866;52.280;9.500;2022-08-21T20:40:06;100324.06;;;19.96;61.93
15529;BME280;7866;52.280;9.500;2022-08-21T20:45:10;100317.56;;;19.97;61.95
15529;BME280;7866;52.280;9.500;2022-08-21T20:50:17;100323.78;;;19.85;62.09
15529;BME280;7866;52.280;9.500;2022-08-21T20:55:23;100324.59;;;19.86;61.91
15529;BME280;7866;52.280;9.500;2022-08-21T21:00:26;100328.00;;;19.81;62.25
15529;BME280;7866;52.280;9.500;2022-08-21T21:05:32;100331.88;;;19.74;62.62
15529;BME280;7866;52.280;9.500;2022-08-21T21:10:42;100330.47;;;19.71;62.81
15529;BME280;7866;52.280;9.500;2022-08-21T21:15:46;100340.63;;;19.76;62.21
15529;BME280;7866;52.280;9.500;2022-08-21T21:20:56;100336.63;;;19.60;62.78
15529;BME280;7866;52.280;9.500;2022-08-21T21:26:05;100342.47;;;19.63;62.84
15529;BME280;7866;52.280;9.500;2022-08-21T21:31:09;100342.28;;;19.58;63.14
15529;BME280;7866;52.280;9.500;2022-08-21T21:36:24;100356.28;;;19.43;63.31
15529;BME280;7866;52.280;9.500;2022-08-21T21:41:34;100357.47;;;19.29;64.38
15529;BME280;7866;52.280;9.500;2022-08-21T21:46:43;100350.22;;;19.41;64.12
15529;BME280;7866;52.280;9.500;2022-08-21T21:51:55;100363.72;;;19.30;64.56
15529;BME280;7866;52.280;9.500;2022-08-21T21:57:07;100367.94;;;19.26;64.60
15529;BME280;7866;52.280;9.500;2022-08-21T22:02:15;100367.03;;;19.13;65.33
15529;BME280;7866;52.280;9.500;2022-08-21T22:07:26;100363.78;;;19.05;65.32
15529;BME280;7866;52.280;9.500;2022-08-21T22:12:45;100369.75;;;18.95;65.09
15529;BME280;7866;52.280;9.500;2022-08-21T22:17:56;100376.00;;;18.95;64.59
15529;BME280;7866;52.280;9.500;2022-08-21T22:23:01;100370.84;;;18.87;64.51
15529;BME280;7866;52.280;9.500;2022-08-21T22:28:07;100380.34;;;18.97;64.66
15529;BME280;7866;52.280;9.500;2022-08-21T22:33:12;100379.72;;;18.94;64.61
15529;BME280;7866;52.280;9.500;2022-08-21T22:38:21;100374.28;;;18.76;65.49
15529;BME280;7866;52.280;9.500;2022-08-21T22:43:29;100374.47;;;18.75;65.65
15529;BME280;7866;52.280;9.500;2022-08-21T22:48:35;100380.16;;;18.73;66.02
15529;BME280;7866;52.280;9.500;2022-08-21T22:53:40;100381.66;;;18.62;66.29
15529;BME280;7866;52.280;9.500;2022-08-21T22:58:54;100384.56;;;18.67;66.32
15529;BME280;7866;52.280;9.500;2022-08-21T23:04:08;100375.41;;;18.62;66.40
15529;BME280;7866;52.280;9.500;2022-08-21T23:09:19;100383.97;;;18.59;66.67
15529;BME280;7866;52.280;9.500;2022-08-21T23:14:24;100389.03;;;18.55;67.08
15529;BME280;7866;52.280;9.500;2022-08-21T23:19:33;100384.72;;;18.48;67.16
15529;BME280;7866;52.280;9.500;2022-08-21T23:24:54;100386.66;;;18.34;68.18
15529;BME280;7866;52.280;9.500;2022-08-21T23:30:06;100375.25;;;18.25;68.51
15529;BME280;7866;52.280;9.500;2022-08-21T23:35:14;100390.53;;;18.19;68.67
15529;BME280;7866;52.280;9.500;2022-08-21T23:40:35;100386.00;;;18.07;69.67
15529;BME280;7866;52.280;9.500;2022-08-21T23:45:50;100384.63;;;18.29;69.32
15529;BME280;7866;52.280;9.500;2022-08-21T23:51:00;100392.59;;;18.24;69.23
15529;BME280;7866;52.280;9.500;2022-08-21T23:56:12;100383.81;;;18.22;69.89
